Strona główna
METAR-TAF:

METAR-TAF

Lotnisko :

Platforma wiertnicza

Hoorn-a, Holandia

Szerokość geograficzna: 52-55-05N, Długość geograficzna: 4-09-01E, wysokość: 41 m

Aktualna obserwacja pogody

Raport powstał 43 minut temu, godzina 19:25 UTC
Wiatr 23 kt od południowo-południowy zachód
Temperatura 18°C
Wilgotność 88%
Ciśnienie 1009 hPa
Widzialność 10 km lub więcej
Mało chmury na wysokości 4800 ft

METAR: EHQE 201925Z AUTO 20023KT 9999 FEW048 18/16 Q1009 W///H///

czas: 22:08 (20:08 UTC)


TAF: brakujący

Obserwacja i prognoza pogody dla ponad 4000 lotnisk (raport METAR i TAF).

Dostępne stacje oznaczono żółtymi i czerwonymi punktami na mapie.

Najedź kursorem aby zobaczyć nazwę stacji.

Kliknij aby zobaczyć obserwacje i prognozy pogody.

Aby zmienić mapę: kliknij na zielony przycisk z czarnym krzyżykiem, aby powiększyć; na zielony przycisk z myślnikiem, aby pomniejszyć; na zielone strzałki, aby przejść do map sąsiednich.


METAR-TAF: